sensor_id;sensor_type;location;lat;lon;timestamp;temperature;humidity
33328;DHT22;19692;52.998;9.116;2023-03-31T00:00:51;10.00;99.90
33328;DHT22;19692;52.998;9.116;2023-03-31T00:03:18;10.10;99.90
33328;DHT22;19692;52.998;9.116;2023-03-31T00:05:48;10.10;99.90
33328;DHT22;19692;52.998;9.116;2023-03-31T00:08:19;10.10;99.90
33328;DHT22;19692;52.998;9.116;2023-03-31T00:10:46;10.20;99.90
33328;DHT22;19692;52.998;9.116;2023-03-31T00:13:12;10.20;99.90
33328;DHT22;19692;52.998;9.116;2023-03-31T00:15:38;10.20;99.90
33328;DHT22;19692;52.998;9.116;2023-03-31T00:18:04;10.30;99.90
33328;DHT22;19692;52.998;9.116;2023-03-31T00:20:30;10.20;99.90
33328;DHT22;19692;52.998;9.116;2023-03-31T00:23:02;10.30;99.90
33328;DHT22;19692;52.998;9.116;2023-03-31T00:25:37;10.20;99.90
33328;DHT22;19692;52.998;9.116;2023-03-31T00:28:05;10.30;99.90
33328;DHT22;19692;52.998;9.116;2023-03-31T00:30:30;10.30;99.90
33328;DHT22;19692;52.998;9.116;2023-03-31T00:32:56;10.40;99.90
33328;DHT22;19692;52.998;9.116;2023-03-31T00:35:22;10.40;99.90
33328;DHT22;19692;52.998;9.116;2023-03-31T00:37:48;10.40;99.90
33328;DHT22;19692;52.998;9.116;2023-03-31T00:40:13;10.40;99.90
33328;DHT22;19692;52.998;9.116;2023-03-31T00:42:43;10.40;99.90
33328;DHT22;19692;52.998;9.116;2023-03-31T00:47:50;10.50;99.90
33328;DHT22;19692;52.998;9.116;2023-03-31T00:50:40;10.50;99.90
33328;DHT22;19692;52.998;9.116;2023-03-31T00:53:16;10.50;99.90
33328;DHT22;19692;52.998;9.116;2023-03-31T00:55:48;10.60;99.90
33328;DHT22;19692;52.998;9.116;2023-03-31T00:58:17;10.60;99.90
33328;DHT22;19692;52.998;9.116;2023-03-31T01:00:46;10.60;99.90
33328;DHT22;19692;52.998;9.116;2023-03-31T01:03:18;10.60;99.90
33328;DHT22;19692;52.998;9.116;2023-03-31T01:08:41;10.60;99.90
33328;DHT22;19692;52.998;9.116;2023-03-31T01:11:10;10.60;99.90
33328;DHT22;19692;52.998;9.116;2023-03-31T01:13:38;10.60;99.90
33328;DHT22;19692;52.998;9.116;2023-03-31T01:16:06;10.60;99.90
33328;DHT22;19692;52.998;9.116;2023-03-31T01:18:32;10.60;99.90
33328;DHT22;19692;52.998;9.116;2023-03-31T01:33:24;10.60;99.90
33328;DHT22;19692;52.998;9.116;2023-03-31T01:36:27;10.50;99.90
33328;DHT22;19692;52.998;9.116;2023-03-31T01:53:30;10.40;99.90
33328;DHT22;19692;52.998;9.116;2023-03-31T01:56:27;10.40;99.90
33328;DHT22;19692;52.998;9.116;2023-03-31T01:59:01;10.30;99.90
33328;DHT22;19692;52.998;9.116;2023-03-31T02:01:36;10.40;99.90
33328;DHT22;19692;52.998;9.116;2023-03-31T02:04:17;10.30;99.90
33328;DHT22;19692;52.998;9.116;2023-03-31T02:07:00;10.30;99.90
33328;DHT22;19692;52.998;9.116;2023-03-31T02:09:33;10.30;99.90
33328;DHT22;19692;52.998;9.116;2023-03-31T02:12:04;10.30;99.90
33328;DHT22;19692;52.998;9.116;2023-03-31T02:14:32;10.30;99.90
33328;DHT22;19692;52.998;9.116;2023-03-31T02:17:01;10.20;99.90
33328;DHT22;19692;52.998;9.116;2023-03-31T02:19:34;10.20;99.90
33328;DHT22;19692;52.998;9.116;2023-03-31T02:22:04;10.20;99.90
33328;DHT22;19692;52.998;9.116;2023-03-31T02:24:33;10.10;99.90
33328;DHT22;19692;52.998;9.116;2023-03-31T02:29:31;10.10;99.90
33328;DHT22;19692;52.998;9.116;2023-03-31T02:32:03;10.10;99.90
33328;DHT22;19692;52.998;9.116;2023-03-31T02:34:37;10.10;99.90
33328;DHT22;19692;52.998;9.116;2023-03-31T02:37:02;10.20;99.90
33328;DHT22;19692;52.998;9.116;2023-03-31T02:39:33;10.10;99.90
33328;DHT22;19692;52.998;9.116;2023-03-31T02:42:00;10.10;99.90
33328;DHT22;19692;52.998;9.116;2023-03-31T02:44:35;10.10;99.90
33328;DHT22;19692;52.998;9.116;2023-03-31T02:47:03;10.20;99.90
33328;DHT22;19692;52.998;9.116;2023-03-31T02:49:32;10.20;99.90
33328;DHT22;19692;52.998;9.116;2023-03-31T03:00:45;10.20;99.90
33328;DHT22;19692;52.998;9.116;2023-03-31T03:14:47;10.10;99.90
33328;DHT22;19692;52.998;9.116;2023-03-31T03:17:31;10.20;99.90
33328;DHT22;19692;52.998;9.116;2023-03-31T03:20:02;10.10;99.90
33328;DHT22;19692;52.998;9.116;2023-03-31T03:22:33;10.10;99.90
33328;DHT22;19692;52.998;9.116;2023-03-31T03:24:58;10.10;99.90
33328;DHT22;19692;52.998;9.116;2023-03-31T03:27:25;10.10;99.90
33328;DHT22;19692;52.998;9.116;2023-03-31T03:29:50;10.10;99.90
33328;DHT22;19692;52.998;9.116;2023-03-31T03:32:16;10.10;99.90
33328;DHT22;19692;52.998;9.116;2023-03-31T03:34:42;10.10;99.90
33328;DHT22;19692;52.998;9.116;2023-03-31T03:37:08;10.10;99.90
33328;DHT22;19692;52.998;9.116;2023-03-31T03:39:33;10.00;99.90
33328;DHT22;19692;52.998;9.116;2023-03-31T03:41:59;10.00;99.90
33328;DHT22;19692;52.998;9.116;2023-03-31T03:44:25;10.10;99.90
33328;DHT22;19692;52.998;9.116;2023-03-31T03:46:51;10.00;99.90
33328;DHT22;19692;52.998;9.116;2023-03-31T03:49:17;10.10;99.90
33328;DHT22;19692;52.998;9.116;2023-03-31T03:51:43;10.10;99.90
33328;DHT22;19692;52.998;9.116;2023-03-31T03:54:09;10.10;99.90
33328;DHT22;19692;52.998;9.116;2023-03-31T03:56:34;10.10;99.90
33328;DHT22;19692;52.998;9.116;2023-03-31T03:59:00;10.10;99.90
33328;DHT22;19692;52.998;9.116;2023-03-31T04:01:26;10.10;99.90
33328;DHT22;19692;52.998;9.116;2023-03-31T04:03:52;10.10;99.90
33328;DHT22;19692;52.998;9.116;2023-03-31T04:06:18;10.10;99.90
33328;DHT22;19692;52.998;9.116;2023-03-31T04:08:43;10.10;99.90
33328;DHT22;19692;52.998;9.116;2023-03-31T04:11:14;10.10;99.90
33328;DHT22;19692;52.998;9.116;2023-03-31T04:13:42;10.10;99.90
33328;DHT22;19692;52.998;9.116;2023-03-31T04:16:09;10.00;99.90
33328;DHT22;19692;52.998;9.116;2023-03-31T04:18:36;10.00;99.90
33328;DHT22;19692;52.998;9.116;2023-03-31T04:21:08;10.00;99.90
33328;DHT22;19692;52.998;9.116;2023-03-31T04:23:37;10.00;99.90
33328;DHT22;19692;52.998;9.116;2023-03-31T04:26:11;9.90;99.90
33328;DHT22;19692;52.998;9.116;2023-03-31T04:28:41;9.90;99.90
33328;DHT22;19692;52.998;9.116;2023-03-31T04:31:11;9.90;99.90
33328;DHT22;19692;52.998;9.116;2023-03-31T04:33:41;9.90;99.90
33328;DHT22;19692;52.998;9.116;2023-03-31T04:36:10;9.90;99.90
33328;DHT22;19692;52.998;9.116;2023-03-31T04:38:42;9.80;99.90
33328;DHT22;19692;52.998;9.116;2023-03-31T04:41:11;9.70;99.90
33328;DHT22;19692;52.998;9.116;2023-03-31T04:43:40;9.60;99.90
33328;DHT22;19692;52.998;9.116;2023-03-31T04:46:05;9.60;99.90
33328;DHT22;19692;52.998;9.116;2023-03-31T04:48:31;9.60;99.90
33328;DHT22;19692;52.998;9.116;2023-03-31T04:50:57;9.50;99.90
33328;DHT22;19692;52.998;9.116;2023-03-31T04:53:23;9.50;99.90
33328;DHT22;19692;52.998;9.116;2023-03-31T04:55:49;9.50;99.90
33328;DHT22;19692;52.998;9.116;2023-03-31T04:58:15;9.40;99.90
33328;DHT22;19692;52.998;9.116;2023-03-31T05:00:41;9.40;99.90
33328;DHT22;19692;52.998;9.116;2023-03-31T05:03:07;9.40;99.90
33328;DHT22;19692;52.998;9.116;2023-03-31T05:05:34;9.40;99.90
33328;DHT22;19692;52.998;9.116;2023-03-31T05:08:00;9.40;99.90
33328;DHT22;19692;52.998;9.116;2023-03-31T05:10:26;9.40;99.90
33328;DHT22;19692;52.998;9.116;2023-03-31T05:12:52;9.40;99.90
33328;DHT22;19692;52.998;9.116;2023-03-31T05:15:18;9.30;99.90
33328;DHT22;19692;52.998;9.116;2023-03-31T05:17:43;9.40;99.90
33328;DHT22;19692;52.998;9.116;2023-03-31T05:20:10;9.40;99.90
33328;DHT22;19692;52.998;9.116;2023-03-31T05:22:38;9.30;99.90
33328;DHT22;19692;52.998;9.116;2023-03-31T05:25:07;9.40;99.90
33328;DHT22;19692;52.998;9.116;2023-03-31T05:27:34;9.40;99.90
33328;DHT22;19692;52.998;9.116;2023-03-31T05:30:01;9.50;99.90
33328;DHT22;19692;52.998;9.116;2023-03-31T05:32:28;9.40;99.90
33328;DHT22;19692;52.998;9.116;2023-03-31T05:34:54;9.40;99.90
33328;DHT22;19692;52.998;9.116;2023-03-31T05:37:22;9.40;99.90
33328;DHT22;19692;52.998;9.116;2023-03-31T05:39:49;9.40;99.90
33328;DHT22;19692;52.998;9.116;2023-03-31T05:42:15;9.40;99.90
33328;DHT22;19692;52.998;9.116;2023-03-31T05:44:40;9.40;99.90
33328;DHT22;19692;52.998;9.116;2023-03-31T05:47:06;9.40;99.90
33328;DHT22;19692;52.998;9.116;2023-03-31T05:49:32;9.40;99.90
33328;DHT22;19692;52.998;9.116;2023-03-31T05:51:58;9.40;99.90
33328;DHT22;19692;52.998;9.116;2023-03-31T05:54:24;9.30;99.90
33328;DHT22;19692;52.998;9.116;2023-03-31T05:56:49;9.40;99.90
33328;DHT22;19692;52.998;9.116;2023-03-31T05:59:15;9.30;99.90
33328;DHT22;19692;52.998;9.116;2023-03-31T06:01:41;9.30;99.90
33328;DHT22;19692;52.998;9.116;2023-03-31T06:04:07;9.40;99.90
33328;DHT22;19692;52.998;9.116;2023-03-31T06:06:33;9.40;99.90
33328;DHT22;19692;52.998;9.116;2023-03-31T06:08:59;9.40;99.90
33328;DHT22;19692;52.998;9.116;2023-03-31T06:11:25;9.40;99.90
33328;DHT22;19692;52.998;9.116;2023-03-31T06:13:51;9.40;99.90
33328;DHT22;19692;52.998;9.116;2023-03-31T06:16:17;9.40;99.90
33328;DHT22;19692;52.998;9.116;2023-03-31T06:18:44;9.50;99.90
33328;DHT22;19692;52.998;9.116;2023-03-31T06:21:12;9.50;99.90
33328;DHT22;19692;52.998;9.116;2023-03-31T06:23:41;9.40;99.90
33328;DHT22;19692;52.998;9.116;2023-03-31T06:26:11;9.40;99.90
33328;DHT22;19692;52.998;9.116;2023-03-31T06:28:38;9.50;99.90
33328;DHT22;19692;52.998;9.116;2023-03-31T06:31:06;9.50;99.90
33328;DHT22;19692;52.998;9.116;2023-03-31T06:33:34;9.50;99.90
33328;DHT22;19692;52.998;9.116;2023-03-31T06:36:00;9.50;99.90
33328;DHT22;19692;52.998;9.116;2023-03-31T06:38:28;9.50;99.90
33328;DHT22;19692;52.998;9.116;2023-03-31T06:40:55;9.50;99.90
33328;DHT22;19692;52.998;9.116;2023-03-31T06:43:21;9.50;99.90
33328;DHT22;19692;52.998;9.116;2023-03-31T06:45:47;9.50;99.90
33328;DHT22;19692;52.998;9.116;2023-03-31T06:48:13;9.50;99.90
33328;DHT22;19692;52.998;9.116;2023-03-31T06:50:40;9.50;99.90
33328;DHT22;19692;52.998;9.116;2023-03-31T06:53:09;9.50;99.90
33328;DHT22;19692;52.998;9.116;2023-03-31T06:55:36;9.60;99.90
33328;DHT22;19692;52.998;9.116;2023-03-31T06:58:02;9.50;99.90
33328;DHT22;19692;52.998;9.116;2023-03-31T07:00:29;9.60;99.90
33328;DHT22;19692;52.998;9.116;2023-03-31T07:02:55;9.60;99.90
33328;DHT22;19692;52.998;9.116;2023-03-31T07:05:22;9.50;99.90
33328;DHT22;19692;52.998;9.116;2023-03-31T07:07:55;9.50;99.90
33328;DHT22;19692;52.998;9.116;2023-03-31T07:10:22;9.50;99.90
33328;DHT22;19692;52.998;9.116;2023-03-31T07:12:49;9.50;99.90
33328;DHT22;19692;52.998;9.116;2023-03-31T07:15:15;9.50;99.90
33328;DHT22;19692;52.998;9.116;2023-03-31T07:17:41;9.60;99.90
33328;DHT22;19692;52.998;9.116;2023-03-31T07:20:14;9.60;99.90
33328;DHT22;19692;52.998;9.116;2023-03-31T07:22:41;9.60;99.90
33328;DHT22;19692;52.998;9.116;2023-03-31T07:25:09;9.60;99.90
33328;DHT22;19692;52.998;9.116;2023-03-31T07:27:36;9.60;99.90
33328;DHT22;19692;52.998;9.116;2023-03-31T07:30:11;9.60;99.90
33328;DHT22;19692;52.998;9.116;2023-03-31T07:32:39;9.70;99.90
33328;DHT22;19692;52.998;9.116;2023-03-31T07:35:08;9.60;99.90
33328;DHT22;19692;52.998;9.116;2023-03-31T07:37:46;9.60;99.90
33328;DHT22;19692;52.998;9.116;2023-03-31T07:40:17;9.70;99.90
33328;DHT22;19692;52.998;9.116;2023-03-31T07:42:45;9.70;99.90
33328;DHT22;19692;52.998;9.116;2023-03-31T07:45:13;9.80;99.90
33328;DHT22;19692;52.998;9.116;2023-03-31T07:47:40;9.80;99.90
33328;DHT22;19692;52.998;9.116;2023-03-31T07:50:07;9.70;99.90
33328;DHT22;19692;52.998;9.116;2023-03-31T07:52:33;9.80;99.90
33328;DHT22;19692;52.998;9.116;2023-03-31T07:54:59;9.80;99.90
33328;DHT22;19692;52.998;9.116;2023-03-31T07:57:25;9.80;99.90
33328;DHT22;19692;52.998;9.116;2023-03-31T07:59:51;9.80;99.90
33328;DHT22;19692;52.998;9.116;2023-03-31T08:02:17;9.80;99.90
33328;DHT22;19692;52.998;9.116;2023-03-31T08:04:43;9.90;99.90
33328;DHT22;19692;52.998;9.116;2023-03-31T08:07:14;9.90;99.90
33328;DHT22;19692;52.998;9.116;2023-03-31T08:09:43;9.90;99.90
33328;DHT22;19692;52.998;9.116;2023-03-31T08:12:10;9.90;99.90
33328;DHT22;19692;52.998;9.116;2023-03-31T08:14:35;9.90;99.90
33328;DHT22;19692;52.998;9.116;2023-03-31T08:17:01;9.90;99.90
33328;DHT22;19692;52.998;9.116;2023-03-31T08:19:28;10.00;99.90
33328;DHT22;19692;52.998;9.116;2023-03-31T08:21:53;9.90;99.90
33328;DHT22;19692;52.998;9.116;2023-03-31T08:24:20;10.00;99.90
33328;DHT22;19692;52.998;9.116;2023-03-31T08:26:46;10.00;99.90
33328;DHT22;19692;52.998;9.116;2023-03-31T08:29:12;10.00;99.90
33328;DHT22;19692;52.998;9.116;2023-03-31T08:31:38;10.00;99.90
33328;DHT22;19692;52.998;9.116;2023-03-31T08:34:04;10.00;99.90
33328;DHT22;19692;52.998;9.116;2023-03-31T08:36:30;10.10;99.90
33328;DHT22;19692;52.998;9.116;2023-03-31T08:38:56;10.20;99.90
33328;DHT22;19692;52.998;9.116;2023-03-31T08:41:56;10.10;99.90
33328;DHT22;19692;52.998;9.116;2023-03-31T08:44:44;10.10;99.90
33328;DHT22;19692;52.998;9.116;2023-03-31T08:47:20;10.20;99.90
33328;DHT22;19692;52.998;9.116;2023-03-31T08:49:53;10.20;99.90
33328;DHT22;19692;52.998;9.116;2023-03-31T08:52:28;10.30;99.90
33328;DHT22;19692;52.998;9.116;2023-03-31T08:55:04;10.30;99.90
33328;DHT22;19692;52.998;9.116;2023-03-31T08:57:40;10.30;99.90
33328;DHT22;19692;52.998;9.116;2023-03-31T09:00:18;10.30;99.90
33328;DHT22;19692;52.998;9.116;2023-03-31T09:05:51;10.40;99.90
33328;DHT22;19692;52.998;9.116;2023-03-31T09:08:32;10.50;99.90
33328;DHT22;19692;52.998;9.116;2023-03-31T09:11:26;10.30;99.90
33328;DHT22;19692;52.998;9.116;2023-03-31T09:14:12;10.40;99.90
33328;DHT22;19692;52.998;9.116;2023-03-31T09:16:46;10.40;99.90
33328;DHT22;19692;52.998;9.116;2023-03-31T09:19:35;10.30;99.90
33328;DHT22;19692;52.998;9.116;2023-03-31T09:22:08;10.30;99.90
33328;DHT22;19692;52.998;9.116;2023-03-31T09:24:46;10.30;99.90
33328;DHT22;19692;52.998;9.116;2023-03-31T09:27:16;10.40;99.90
33328;DHT22;19692;52.998;9.116;2023-03-31T09:29:55;10.30;99.90
33328;DHT22;19692;52.998;9.116;2023-03-31T09:32:36;10.30;99.90
33328;DHT22;19692;52.998;9.116;2023-03-31T09:35:18;10.40;99.90
33328;DHT22;19692;52.998;9.116;2023-03-31T09:37:46;10.40;99.90
33328;DHT22;19692;52.998;9.116;2023-03-31T09:40:21;10.50;99.90
33328;DHT22;19692;52.998;9.116;2023-03-31T09:42:57;10.50;99.90
33328;DHT22;19692;52.998;9.116;2023-03-31T09:45:33;10.50;99.90
33328;DHT22;19692;52.998;9.116;2023-03-31T09:48:06;10.50;99.90
33328;DHT22;19692;52.998;9.116;2023-03-31T09:50:41;10.50;99.90
33328;DHT22;19692;52.998;9.116;2023-03-31T09:53:28;10.50;99.90
33328;DHT22;19692;52.998;9.116;2023-03-31T09:56:04;10.50;99.90
33328;DHT22;19692;52.998;9.116;2023-03-31T09:58:42;10.40;99.90
33328;DHT22;19692;52.998;9.116;2023-03-31T10:01:13;10.40;99.90
33328;DHT22;19692;52.998;9.116;2023-03-31T10:03:50;10.40;99.90
33328;DHT22;19692;52.998;9.116;2023-03-31T10:06:19;10.40;99.90
33328;DHT22;19692;52.998;9.116;2023-03-31T10:08:56;10.40;99.90
33328;DHT22;19692;52.998;9.116;2023-03-31T10:11:24;10.50;99.90
33328;DHT22;19692;52.998;9.116;2023-03-31T10:14:01;10.40;99.90
33328;DHT22;19692;52.998;9.116;2023-03-31T10:19:17;10.60;99.90
33328;DHT22;19692;52.998;9.116;2023-03-31T10:21:48;10.60;99.90
33328;DHT22;19692;52.998;9.116;2023-03-31T10:24:20;10.70;99.90
33328;DHT22;19692;52.998;9.116;2023-03-31T10:26:53;10.80;99.90
33328;DHT22;19692;52.998;9.116;2023-03-31T10:29:29;10.80;99.90
33328;DHT22;19692;52.998;9.116;2023-03-31T10:32:08;10.90;99.90
33328;DHT22;19692;52.998;9.116;2023-03-31T10:34:41;10.90;99.90
33328;DHT22;19692;52.998;9.116;2023-03-31T10:37:11;10.90;99.90
33328;DHT22;19692;52.998;9.116;2023-03-31T10:39:42;10.90;99.90
33328;DHT22;19692;52.998;9.116;2023-03-31T10:42:09;11.00;99.90
33328;DHT22;19692;52.998;9.116;2023-03-31T10:44:37;10.90;99.90
33328;DHT22;19692;52.998;9.116;2023-03-31T10:47:06;10.90;99.90
33328;DHT22;19692;52.998;9.116;2023-03-31T10:49:43;10.80;99.90
33328;DHT22;19692;52.998;9.116;2023-03-31T10:54:58;11.00;99.90
33328;DHT22;19692;52.998;9.116;2023-03-31T10:57:52;11.10;99.90
33328;DHT22;19692;52.998;9.116;2023-03-31T11:00:31;11.00;99.90
33328;DHT22;19692;52.998;9.116;2023-03-31T11:12:39;11.00;99.90
33328;DHT22;19692;52.998;9.116;2023-03-31T11:15:23;10.90;99.90
33328;DHT22;19692;52.998;9.116;2023-03-31T11:27:00;11.00;99.90
33328;DHT22;19692;52.998;9.116;2023-03-31T11:29:51;11.20;99.90
33328;DHT22;19692;52.998;9.116;2023-03-31T11:32:44;11.40;99.90
33328;DHT22;19692;52.998;9.116;2023-03-31T11:35:39;11.50;99.90
33328;DHT22;19692;52.998;9.116;2023-03-31T11:38:43;11.60;99.90
33328;DHT22;19692;52.998;9.116;2023-03-31T11:41:34;11.70;99.90
33328;DHT22;19692;52.998;9.116;2023-03-31T11:44:07;11.80;99.90
33328;DHT22;19692;52.998;9.116;2023-03-31T11:46:38;11.90;99.90
33328;DHT22;19692;52.998;9.116;2023-03-31T11:52:06;12.30;99.90
33328;DHT22;19692;52.998;9.116;2023-03-31T11:55:06;12.30;99.90
33328;DHT22;19692;52.998;9.116;2023-03-31T12:00:55;12.80;99.90
33328;DHT22;19692;52.998;9.116;2023-03-31T12:06:40;13.20;99.90
33328;DHT22;19692;52.998;9.116;2023-03-31T12:09:26;13.20;99.90
33328;DHT22;19692;52.998;9.116;2023-03-31T12:14:47;13.00;99.90
33328;DHT22;19692;52.998;9.116;2023-03-31T12:17:19;13.20;99.90
33328;DHT22;19692;52.998;9.116;2023-03-31T12:20:13;13.30;99.90
33328;DHT22;19692;52.998;9.116;2023-03-31T12:22:44;13.20;99.90
33328;DHT22;19692;52.998;9.116;2023-03-31T12:25:15;13.00;99.90
33328;DHT22;19692;52.998;9.116;2023-03-31T12:27:48;12.80;99.90
33328;DHT22;19692;52.998;9.116;2023-03-31T12:33:17;12.90;99.90
33328;DHT22;19692;52.998;9.116;2023-03-31T12:35:51;13.00;99.90
33328;DHT22;19692;52.998;9.116;2023-03-31T12:45:40;12.70;99.90
33328;DHT22;19692;52.998;9.116;2023-03-31T12:50:55;12.60;99.90
33328;DHT22;19692;52.998;9.116;2023-03-31T12:59:38;12.30;99.90
33328;DHT22;19692;52.998;9.116;2023-03-31T13:04:35;12.10;99.90
33328;DHT22;19692;52.998;9.116;2023-03-31T13:07:03;12.10;99.90
33328;DHT22;19692;52.998;9.116;2023-03-31T13:09:47;12.00;99.90
33328;DHT22;19692;52.998;9.116;2023-03-31T13:12:22;11.90;99.90
33328;DHT22;19692;52.998;9.116;2023-03-31T13:14:53;11.90;99.90
33328;DHT22;19692;52.998;9.116;2023-03-31T13:17:34;11.90;99.90
33328;DHT22;19692;52.998;9.116;2023-03-31T13:20:37;12.00;99.90
33328;DHT22;19692;52.998;9.116;2023-03-31T13:23:15;12.10;99.90
33328;DHT22;19692;52.998;9.116;2023-03-31T13:25:52;12.10;99.90
33328;DHT22;19692;52.998;9.116;2023-03-31T13:50:49;12.70;99.90
33328;DHT22;19692;52.998;9.116;2023-03-31T13:53:58;12.80;99.90
33328;DHT22;19692;52.998;9.116;2023-03-31T14:05:42;13.30;99.90
33328;DHT22;19692;52.998;9.116;2023-03-31T14:11:26;13.60;99.90
33328;DHT22;19692;52.998;9.116;2023-03-31T14:14:11;13.70;99.90
33328;DHT22;19692;52.998;9.116;2023-03-31T14:16:44;13.60;99.90
33328;DHT22;19692;52.998;9.116;2023-03-31T14:22:58;13.20;99.90
33328;DHT22;19692;52.998;9.116;2023-03-31T14:25:48;13.10;99.90
33328;DHT22;19692;52.998;9.116;2023-03-31T14:28:44;13.00;99.90
33328;DHT22;19692;52.998;9.116;2023-03-31T14:31:36;12.80;99.90
33328;DHT22;19692;52.998;9.116;2023-03-31T14:37:11;12.50;99.90
33328;DHT22;19692;52.998;9.116;2023-03-31T14:39:46;12.30;99.90
33328;DHT22;19692;52.998;9.116;2023-03-31T14:42:25;12.20;99.90
33328;DHT22;19692;52.998;9.116;2023-03-31T14:45:01;12.10;99.90
33328;DHT22;19692;52.998;9.116;2023-03-31T14:47:28;12.00;99.90
33328;DHT22;19692;52.998;9.116;2023-03-31T14:50:10;12.00;99.90
33328;DHT22;19692;52.998;9.116;2023-03-31T14:52:39;12.00;99.90
33328;DHT22;19692;52.998;9.116;2023-03-31T14:55:16;12.00;99.90
33328;DHT22;19692;52.998;9.116;2023-03-31T14:57:45;12.10;99.90
33328;DHT22;19692;52.998;9.116;2023-03-31T15:00:21;12.30;99.90
33328;DHT22;19692;52.998;9.116;2023-03-31T15:02:53;12.40;99.90
33328;DHT22;19692;52.998;9.116;2023-03-31T15:05:22;12.50;99.90
33328;DHT22;19692;52.998;9.116;2023-03-31T15:07:50;12.70;99.90
33328;DHT22;19692;52.998;9.116;2023-03-31T15:10:20;12.80;99.90
33328;DHT22;19692;52.998;9.116;2023-03-31T15:12:48;12.90;99.90
33328;DHT22;19692;52.998;9.116;2023-03-31T15:15:18;12.90;99.90
33328;DHT22;19692;52.998;9.116;2023-03-31T15:17:46;12.90;99.90
33328;DHT22;19692;52.998;9.116;2023-03-31T15:20:26;12.70;99.90
33328;DHT22;19692;52.998;9.116;2023-03-31T15:22:57;12.70;99.90
33328;DHT22;19692;52.998;9.116;2023-03-31T15:25:31;12.60;99.90
33328;DHT22;19692;52.998;9.116;2023-03-31T15:28:06;12.50;99.90
33328;DHT22;19692;52.998;9.116;2023-03-31T15:30:36;12.60;99.90
33328;DHT22;19692;52.998;9.116;2023-03-31T15:33:13;12.70;99.90
33328;DHT22;19692;52.998;9.116;2023-03-31T15:35:43;12.80;99.90
33328;DHT22;19692;52.998;9.116;2023-03-31T15:38:10;12.70;99.90
33328;DHT22;19692;52.998;9.116;2023-03-31T15:40:41;12.70;99.90
33328;DHT22;19692;52.998;9.116;2023-03-31T15:43:17;12.70;99.90
33328;DHT22;19692;52.998;9.116;2023-03-31T15:48:21;12.60;99.90
33328;DHT22;19692;52.998;9.116;2023-03-31T15:50:51;12.50;99.90
33328;DHT22;19692;52.998;9.116;2023-03-31T15:53:28;12.50;99.90
33328;DHT22;19692;52.998;9.116;2023-03-31T15:55:57;12.40;99.90
33328;DHT22;19692;52.998;9.116;2023-03-31T15:58:55;12.40;99.90
33328;DHT22;19692;52.998;9.116;2023-03-31T16:01:36;12.30;99.90
33328;DHT22;19692;52.998;9.116;2023-03-31T16:04:08;12.10;99.90
33328;DHT22;19692;52.998;9.116;2023-03-31T16:06:48;12.10;99.90
33328;DHT22;19692;52.998;9.116;2023-03-31T16:12:35;11.90;99.90
33328;DHT22;19692;52.998;9.116;2023-03-31T16:15:15;11.90;99.90
33328;DHT22;19692;52.998;9.116;2023-03-31T16:17:50;11.90;99.90
33328;DHT22;19692;52.998;9.116;2023-03-31T16:20:35;11.90;99.90
33328;DHT22;19692;52.998;9.116;2023-03-31T16:23:17;11.90;99.90
33328;DHT22;19692;52.998;9.116;2023-03-31T16:25:44;11.80;99.90
33328;DHT22;19692;52.998;9.116;2023-03-31T16:28:20;11.80;99.90
33328;DHT22;19692;52.998;9.116;2023-03-31T16:30:47;11.70;99.90
33328;DHT22;19692;52.998;9.116;2023-03-31T16:33:15;11.60;99.90
33328;DHT22;19692;52.998;9.116;2023-03-31T16:35:51;11.60;99.90
33328;DHT22;19692;52.998;9.116;2023-03-31T16:38:24;11.60;99.90
33328;DHT22;19692;52.998;9.116;2023-03-31T16:40:52;11.60;99.90
33328;DHT22;19692;52.998;9.116;2023-03-31T16:43:24;11.50;99.90
33328;DHT22;19692;52.998;9.116;2023-03-31T16:45:54;11.60;99.90
33328;DHT22;19692;52.998;9.116;2023-03-31T16:48:23;11.50;99.90
33328;DHT22;19692;52.998;9.116;2023-03-31T16:50:55;11.50;99.90
33328;DHT22;19692;52.998;9.116;2023-03-31T16:53:26;11.40;99.90
33328;DHT22;19692;52.998;9.116;2023-03-31T16:55:54;11.30;99.90
33328;DHT22;19692;52.998;9.116;2023-03-31T16:58:20;11.30;99.90
33328;DHT22;19692;52.998;9.116;2023-03-31T17:00:49;11.30;99.90
33328;DHT22;19692;52.998;9.116;2023-03-31T17:03:15;11.30;99.90
33328;DHT22;19692;52.998;9.116;2023-03-31T17:05:46;11.40;99.90
33328;DHT22;19692;52.998;9.116;2023-03-31T17:08:15;11.30;99.90
33328;DHT22;19692;52.998;9.116;2023-03-31T17:10:49;11.30;99.90
33328;DHT22;19692;52.998;9.116;2023-03-31T17:13:24;11.30;99.90
33328;DHT22;19692;52.998;9.116;2023-03-31T17:15:50;11.30;99.90
33328;DHT22;19692;52.998;9.116;2023-03-31T17:18:18;11.20;99.90
33328;DHT22;19692;52.998;9.116;2023-03-31T17:20:43;11.10;99.90
33328;DHT22;19692;52.998;9.116;2023-03-31T17:23:09;11.00;99.90
33328;DHT22;19692;52.998;9.116;2023-03-31T17:25:36;10.90;99.90
33328;DHT22;19692;52.998;9.116;2023-03-31T17:28:03;10.80;99.90
33328;DHT22;19692;52.998;9.116;2023-03-31T17:30:30;10.80;99.90
33328;DHT22;19692;52.998;9.116;2023-03-31T17:32:57;10.70;99.90
33328;DHT22;19692;52.998;9.116;2023-03-31T17:35:23;10.60;99.90
33328;DHT22;19692;52.998;9.116;2023-03-31T17:37:50;10.60;99.90
33328;DHT22;19692;52.998;9.116;2023-03-31T17:40:23;10.60;99.90
33328;DHT22;19692;52.998;9.116;2023-03-31T17:42:49;10.50;99.90
33328;DHT22;19692;52.998;9.116;2023-03-31T17:45:15;10.40;99.90
33328;DHT22;19692;52.998;9.116;2023-03-31T17:47:41;10.40;99.90
33328;DHT22;19692;52.998;9.116;2023-03-31T17:50:09;10.50;99.90
33328;DHT22;19692;52.998;9.116;2023-03-31T17:52:35;10.40;99.90
33328;DHT22;19692;52.998;9.116;2023-03-31T17:55:02;10.30;99.90
33328;DHT22;19692;52.998;9.116;2023-03-31T17:57:30;10.30;99.90
33328;DHT22;19692;52.998;9.116;2023-03-31T17:59:56;10.30;99.90
33328;DHT22;19692;52.998;9.116;2023-03-31T18:02:23;10.30;99.90
33328;DHT22;19692;52.998;9.116;2023-03-31T18:04:49;10.20;99.90
33328;DHT22;19692;52.998;9.116;2023-03-31T18:07:15;10.10;99.90
33328;DHT22;19692;52.998;9.116;2023-03-31T18:09:43;10.10;99.90
33328;DHT22;19692;52.998;9.116;2023-03-31T18:12:09;10.20;99.90
33328;DHT22;19692;52.998;9.116;2023-03-31T18:14:35;10.20;99.90
33328;DHT22;19692;52.998;9.116;2023-03-31T18:17:01;10.00;99.90
33328;DHT22;19692;52.998;9.116;2023-03-31T18:19:27;10.00;99.90
33328;DHT22;19692;52.998;9.116;2023-03-31T18:21:54;9.90;99.90
33328;DHT22;19692;52.998;9.116;2023-03-31T18:24:20;10.00;99.90
33328;DHT22;19692;52.998;9.116;2023-03-31T18:26:47;10.00;99.90
33328;DHT22;19692;52.998;9.116;2023-03-31T18:29:13;10.00;99.90
33328;DHT22;19692;52.998;9.116;2023-03-31T18:31:39;10.00;99.90
33328;DHT22;19692;52.998;9.116;2023-03-31T18:34:05;10.00;99.90
33328;DHT22;19692;52.998;9.116;2023-03-31T18:36:31;9.90;99.90
33328;DHT22;19692;52.998;9.116;2023-03-31T18:38:57;10.00;99.90
33328;DHT22;19692;52.998;9.116;2023-03-31T18:41:23;10.00;99.90
33328;DHT22;19692;52.998;9.116;2023-03-31T18:43:49;10.00;99.90